Tenerife > WETTERSTATION Las Carboneras - Santa Cruz de Tenerife

AKTUELLE DATEN Online

Letztes Update am 52 minutos

15.3 ºC

Temperatur

86

Feuchtigkeit (%)

944.11

Druck (mb)

0

Niederschlag (mm)

18 NW

Wind (Km/h)

TÄGLICHE DATEN

Temperatur in den letzten 24 Stunden (ºC)

Luftfeuchtigkeit letzte 24 Stunden (%)

Atmosphärischer Druck in den letzten 24 Stunden últimas 24 horas (mb)

Niederschläge in den letzten 24 Stunden (mm)

Windböen in den letzten 24 Stunden (Km/h)

Stunde Temperatur (°C) ºC Niederschlag (mm) mm Druck (mb) mb Feuchtigkeit (%) % Wind (Km/h) km/h
29 - 00:00 14.5 0 945 91 10.1 N
29 - 01:00 14.6 0 945 92 10.3 N
29 - 02:00 14.6 0 944 93 14.1 N
29 - 03:00 13.9 0 944 92 8.3 W
29 - 04:00 14.8 0 944 83 12 W
29 - 05:00 14.8 0 943 86 8.7 O
29 - 06:00 14.9 0 943 86 4.4 O
29 - 07:00 14.8 0 944 87 10.1 N
29 - 08:00 15.5 0 944 85 5.5 SO
29 - 09:00 16.2 0 945 80 9.3 N
29 - 10:00 16.5 0 945 77 6.7 NW
29 - 11:00 16.8 0 945 71 10.3 N
29 - 12:00 17.5 0 945 75 18.5 N
29 - 13:00 16.6 0 944 78 12.7 N
29 - 14:00 16.8 0 944 77 9.2 N
29 - 15:00 17 0 944 76 15 N
29 - 16:00 17 0 944 74 16.1 N
29 - 17:00 17.1 0 944 74 13.4 N
29 - 18:00 16.6 0 944 77 10.2 NW
29 - 19:00 15.8 0 943 85 17 N
29 - 20:00 15.5 0 943 87 17.6 N
29 - 21:00 15.4 0 944 87 15.2 N
29 - 22:00 15.6 0 944 86 12.6 N
29 - 23:00 15.3 0 944 86 18 NW
30 - 00:00
Apalmet nutzt eigene Cookies sowie Cookies von Dritten um unsere Dienstleistungen zu verbessern Cookies.